Terminal Aerodrome Forecast
Issued by NWS Paducah, KY

Home | Current Version | Previous Version | Graphics & Text | Print | Product List | Glossary On
Versions: 1 2 3 4 5 6 7 8 9 10 11 12 13 14 15 16 17 18
000
FTUS43 KPAH 011700
TAFEVV
TAF
KEVV 011720Z 0118/0218 19007KT 3SM BR SCT007 OVC012
      TEMPO 0118/0120 2SM -RA BR OVC007
     FM012000 20010KT 4SM BR OVC007
     FM020000 27012G20KT 5SM BR OVC012
     FM020300 30015G25KT P6SM OVC015
     FM021600 32012G20KT P6SM SCT015=

USA.gov is the U.S. government's official web portal to all federal, state and local government web resources and services.